Terminal Aerodrome Forecast
Issued by NWS Atlanta, GA

Home | Current Version | Previous Version | Text Only | Print | Product List | Glossary On
Versions: 1 2 3 4 5 6 7 8 9 10 11 12 13 14 15 16 17 18 19
000
FTUS42 KFFC 030540
TAFCSG
TAF
KCSG 030540Z 0306/0406 00000KT 6SM BR SCT012 BKN020
     FM030900 09004KT 4SM -DZ BR OVC007
     FM031400 13004KT 3SM -DZ BR OVC008
     FM031500 14005KT P6SM OVC008
     FM031700 17006KT P6SM OVC012
     FM032000 18008KT P6SM BKN020=

USA.gov is the U.S. government's official web portal to all federal, state and local government web resources and services.